Glassville, Canada
Current Conditions -  °F | °C
As of 6:53 PM on Thursday 23 Oct 2014 (Local Time) from KHUL Reporting Station
Overcast Overcast  
Wind Chill: 41°   Ceiling: 2200
Heat Index: 46°   Visibility: 10mi
Dew Point: 43°   Wind: 12mph
Humidity: 89%   Direction: 20°NNE
Pressure: 29.94"   Gusts: NA
Location:  46.48°N, 67.42°W
Report Text: KHUL 232153Z AUTO 02010KT 10SM OVC022 08/06 A2994 RMK AO2 RAE51 SLP142 P0003 T00780061
Loading
Personal Weather Stations






























Interactive Weather Map
Tropical Storm Tracking
New forecast layout! Learn more

10-Day Weather Forecast

Advertisements
Track Severe Weather on mobile